Time;durP1;ratioP1;P1;durP2;ratioP2;P2;SDS_P1;SDS_P2;PMS_P1;PMS_P2;Temp;Humidity;BMP_temperature;BMP_pressure;BME280_temperature;BME280_humidity;BME280_pressure;Samples;Min_cycle;Max_cycle;Signal;HPM_P1;HPM_P2
2021/09/12 00:00:16;;;;;;;;;;;17.80;99.90;;;;;;2619723;54;20414;-73
2021/09/12 00:02:44;;;;;;;;;;;17.90;99.90;;;;;;2618733;47;19961;-73
2021/09/12 00:05:11;;;;;;;;;;;18.00;99.90;;;;;;2618850;47;19961;-73
2021/09/12 00:07:36;;;;;;;;;;;18.10;99.90;;;;;;2619066;47;19946;-74
2021/09/12 00:10:02;;;;;;;;;;;18.20;99.90;;;;;;2618902;47;19939;-73
2021/09/12 00:12:28;;;;;;;;;;;18.40;99.90;;;;;;2617855;54;19939;-73
2021/09/12 00:14:54;;;;;;;;;;;18.50;99.90;;;;;;2619923;54;19938;-73
2021/09/12 00:17:20;;;;;;;;;;;18.70;99.90;;;;;;2620794;46;19938;-73
2021/09/12 00:19:48;;;;;;;;;;;18.80;99.90;;;;;;2621609;54;19947;-72
2021/09/12 00:22:14;;;;;;;;;;;18.90;99.90;;;;;;2621348;54;19985;-73
2021/09/12 00:24:39;;;;;;;;;;;19.00;99.90;;;;;;2621264;54;19938;-74
2021/09/12 00:27:05;;;;;;;;;;;19.10;99.90;;;;;;2620874;46;19969;-72
2021/09/12 00:29:31;;;;;;;;;;;19.20;99.90;;;;;;2621109;54;19943;-73
2021/09/12 00:31:57;;;;;;;;;;;19.40;99.90;;;;;;2620536;46;20417;-72
2021/09/12 00:34:22;;;;;;;;;;;19.30;99.90;;;;;;2621001;54;19943;-73
2021/09/12 00:36:51;;;;;;;;;;;19.40;99.90;;;;;;2620885;54;19939;-73
2021/09/12 00:39:16;;;;;;;;;;;19.40;99.90;;;;;;2620102;46;19989;-73
2021/09/12 00:41:43;;;;;;;;;;;19.40;99.90;;;;;;2620513;46;19939;-72
2021/09/12 00:44:10;;;;;;;;;;;19.40;99.90;;;;;;2620714;54;19942;-73
2021/09/12 00:46:37;;;;;;;;;;;19.50;99.90;;;;;;2620216;46;19938;-74
2021/09/12 00:49:03;;;;;;;;;;;19.40;99.90;;;;;;2621646;31;20375;-73
2021/09/12 00:51:29;;;;;;;;;;;19.40;99.90;;;;;;2620780;54;19939;-72
2021/09/12 00:53:58;;;;;;;;;;;19.30;99.90;;;;;;2620562;54;19939;-72
2021/09/12 00:56:28;;;;;;;;;;;19.30;99.90;;;;;;2620614;54;19938;-72
2021/09/12 00:58:55;;;;;;;;;;;19.30;99.90;;;;;;2619802;54;19939;-73
2021/09/12 01:01:21;;;;;;;;;;;19.20;99.90;;;;;;2620621;54;19989;-71
2021/09/12 01:06:14;;;;;;;;;;;19.20;99.90;;;;;;2621226;54;19942;-71
2021/09/12 01:08:40;;;;;;;;;;;19.00;99.90;;;;;;2621319;39;20336;-72
2021/09/12 01:11:08;;;;;;;;;;;18.90;99.90;;;;;;2620450;46;19947;-71
2021/09/12 01:13:36;;;;;;;;;;;18.70;99.90;;;;;;2620705;46;19939;-74
2021/09/12 01:16:08;;;;;;;;;;;18.70;99.90;;;;;;2620905;46;20453;-73
2021/09/12 01:18:33;;;;;;;;;;;18.80;99.90;;;;;;2621177;54;19939;-72
2021/09/12 01:20:59;;;;;;;;;;;19.00;99.90;;;;;;2621023;54;19980;-74
2021/09/12 01:23:25;;;;;;;;;;;19.10;99.90;;;;;;2621179;54;20421;-73
2021/09/12 01:25:57;;;;;;;;;;;19.20;99.90;;;;;;2621018;54;20030;-72
2021/09/12 01:28:22;;;;;;;;;;;19.30;99.90;;;;;;2619933;54;19939;-72
2021/09/12 01:30:48;;;;;;;;;;;19.30;99.90;;;;;;2619524;46;19939;-73
2021/09/12 01:33:14;;;;;;;;;;;19.40;99.90;;;;;;2620098;39;20349;-73
2021/09/12 01:35:40;;;;;;;;;;;19.50;99.90;;;;;;2620343;54;19969;-73
2021/09/12 01:38:05;;;;;;;;;;;19.50;99.90;;;;;;2620109;54;19945;-71
2021/09/12 01:40:31;;;;;;;;;;;19.60;99.90;;;;;;2619449;46;20421;-73
2021/09/12 01:43:00;;;;;;;;;;;19.60;99.90;;;;;;2619349;47;19946;-72
2021/09/12 01:45:26;;;;;;;;;;;19.60;99.90;;;;;;2619960;54;19945;-72
2021/09/12 01:47:58;;;;;;;;;;;19.60;99.90;;;;;;2620162;54;19939;-71
2021/09/12 01:50:24;;;;;;;;;;;19.70;99.90;;;;;;2620242;54;19973;-71
2021/09/12 01:52:50;;;;;;;;;;;19.70;99.80;;;;;;2620125;54;19938;-71
2021/09/12 01:55:16;;;;;;;;;;;19.70;99.80;;;;;;2620567;39;20351;-71
2021/09/12 01:57:41;;;;;;;;;;;19.70;99.80;;;;;;2620053;54;19962;-71
2021/09/12 02:00:10;;;;;;;;;;;19.70;99.80;;;;;;2619631;46;19939;-72
2021/09/12 02:02:36;;;;;;;;;;;19.70;99.90;;;;;;2620031;54;19946;-72
2021/09/12 02:05:03;;;;;;;;;;;19.70;99.80;;;;;;2619134;54;19972;-71
2021/09/12 02:07:28;;;;;;;;;;;19.70;99.90;;;;;;2619975;54;19973;-70
2021/09/12 02:09:54;;;;;;;;;;;19.60;99.90;;;;;;2619403;46;19940;-72
2021/09/12 02:12:20;;;;;;;;;;;19.60;99.90;;;;;;2619954;54;19939;-71
2021/09/12 02:14:46;;;;;;;;;;;19.50;99.90;;;;;;2619870;54;19938;-70
2021/09/12 02:17:14;;;;;;;;;;;19.50;99.90;;;;;;2619110;46;19938;-72
2021/09/12 02:19:40;;;;;;;;;;;19.50;99.90;;;;;;2619733;54;19946;-71
2021/09/12 02:22:07;;;;;;;;;;;19.50;99.90;;;;;;2619317;46;19951;-72
2021/09/12 02:24:33;;;;;;;;;;;19.50;99.90;;;;;;2620235;39;20333;-73
2021/09/12 02:26:59;;;;;;;;;;;19.50;99.90;;;;;;2619815;54;20030;-73
2021/09/12 02:29:24;;;;;;;;;;;19.50;99.90;;;;;;2619393;47;19942;-73
2021/09/12 02:31:51;;;;;;;;;;;19.50;99.90;;;;;;2620331;54;19942;-72
2021/09/12 02:34:19;;;;;;;;;;;19.50;99.90;;;;;;2619823;54;19935;-71
2021/09/12 02:36:45;;;;;;;;;;;19.50;99.90;;;;;;2619896;54;19938;-72
2021/09/12 02:39:10;;;;;;;;;;;19.50;99.90;;;;;;2619358;54;19939;-71
2021/09/12 02:41:36;;;;;;;;;;;19.40;99.90;;;;;;2619592;54;19946;-72
2021/09/12 02:44:02;;;;;;;;;;;19.40;99.80;;;;;;2619939;54;19942;-71
2021/09/12 02:46:28;;;;;;;;;;;19.50;99.90;;;;;;2619278;46;19939;-71
2021/09/12 02:48:53;;;;;;;;;;;19.50;99.90;;;;;;2619396;46;19970;-72
2021/09/12 02:51:22;;;;;;;;;;;19.50;99.80;;;;;;2619652;39;20333;-71
2021/09/12 02:53:47;;;;;;;;;;;19.50;99.90;;;;;;2619755;54;19946;-71
2021/09/12 02:56:13;;;;;;;;;;;19.40;99.80;;;;;;2619967;54;19980;-71
2021/09/12 02:58:39;;;;;;;;;;;19.40;99.90;;;;;;2620454;39;20335;-74
2021/09/12 03:01:05;;;;;;;;;;;19.40;99.70;;;;;;2619596;46;20026;-72
2021/09/12 03:03:30;;;;;;;;;;;19.40;99.80;;;;;;2619765;54;19939;-72
2021/09/12 03:05:58;;;;;;;;;;;19.40;99.90;;;;;;2619285;54;20425;-71
2021/09/12 03:08:26;;;;;;;;;;;19.40;99.60;;;;;;2619779;54;19939;-71
2021/09/12 03:10:52;;;;;;;;;;;19.40;99.60;;;;;;2620203;39;20321;-71
2021/09/12 03:13:18;;;;;;;;;;;19.50;99.70;;;;;;2619892;54;19939;-71
2021/09/12 03:15:44;;;;;;;;;;;19.40;99.60;;;;;;2619405;46;19938;-72
2021/09/12 03:18:10;;;;;;;;;;;19.40;99.60;;;;;;2619756;54;20468;-71
2021/09/12 03:20:35;;;;;;;;;;;19.30;99.80;;;;;;2619917;54;20398;-71
2021/09/12 03:23:01;;;;;;;;;;;19.30;99.80;;;;;;2619270;47;19961;-71
2021/09/12 03:25:30;;;;;;;;;;;19.30;99.60;;;;;;2619557;54;20026;-71
2021/09/12 03:27:56;;;;;;;;;;;19.30;99.70;;;;;;2619715;54;20417;-71
2021/09/12 03:30:22;;;;;;;;;;;19.30;99.60;;;;;;2619611;54;20398;-72
2021/09/12 03:32:47;;;;;;;;;;;19.40;99.60;;;;;;2618920;47;19939;-70
2021/09/12 03:35:13;;;;;;;;;;;19.30;99.80;;;;;;2619617;54;19943;-71
2021/09/12 03:37:39;;;;;;;;;;;19.30;99.60;;;;;;2620378;39;20349;-72
2021/09/12 03:40:06;;;;;;;;;;;19.30;99.50;;;;;;2619070;46;19938;-73
2021/09/12 03:42:34;;;;;;;;;;;19.30;99.60;;;;;;2619637;54;19939;-72
2021/09/12 03:45:00;;;;;;;;;;;19.30;99.70;;;;;;2618893;47;19946;-71
2021/09/12 03:47:26;;;;;;;;;;;19.30;99.70;;;;;;2619015;47;19939;-72
2021/09/12 03:49:52;;;;;;;;;;;19.20;99.60;;;;;;2619521;54;19950;-71
2021/09/12 03:52:17;;;;;;;;;;;19.30;99.60;;;;;;2619610;54;19946;-71
2021/09/12 03:54:43;;;;;;;;;;;19.30;99.50;;;;;;2619630;54;19938;-72
2021/09/12 03:57:09;;;;;;;;;;;19.30;99.40;;;;;;2619628;54;19945;-72
2021/09/12 03:59:37;;;;;;;;;;;19.30;99.30;;;;;;2619761;54;19939;-71
2021/09/12 04:02:03;;;;;;;;;;;19.30;99.50;;;;;;2619528;54;19966;-70
2021/09/12 04:04:29;;;;;;;;;;;19.30;99.40;;;;;;2619447;54;20022;-70
2021/09/12 04:06:55;;;;;;;;;;;19.30;99.40;;;;;;2619866;39;20348;-71
2021/09/12 04:09:20;;;;;;;;;;;19.30;99.30;;;;;;2619510;54;19938;-72
2021/09/12 04:11:46;;;;;;;;;;;19.30;99.40;;;;;;2618908;47;19939;-70
2021/09/12 04:14:12;;;;;;;;;;;19.30;99.60;;;;;;2619559;54;19947;-72
2021/09/12 04:16:40;;;;;;;;;;;19.30;99.60;;;;;;2619458;54;19950;-71
2021/09/12 04:19:06;;;;;;;;;;;19.30;99.30;;;;;;2620002;39;20333;-73
2021/09/12 04:21:32;;;;;;;;;;;19.30;99.40;;;;;;2619019;47;19951;-71
2021/09/12 04:23:57;;;;;;;;;;;19.20;99.40;;;;;;2619532;54;20018;-70
2021/09/12 04:26:23;;;;;;;;;;;19.20;99.60;;;;;;2619418;54;19950;-71
2021/09/12 04:28:49;;;;;;;;;;;19.20;99.60;;;;;;2619545;54;20468;-70
2021/09/12 04:31:15;;;;;;;;;;;19.10;99.80;;;;;;2619210;54;19943;-71
2021/09/12 04:33:43;;;;;;;;;;;19.10;99.40;;;;;;2618746;47;19939;-71
2021/09/12 04:36:09;;;;;;;;;;;19.10;99.70;;;;;;2619956;39;20507;-71
2021/09/12 04:38:35;;;;;;;;;;;19.20;99.60;;;;;;2619345;54;20098;-73
2021/09/12 04:41:01;;;;;;;;;;;19.10;99.50;;;;;;2618864;47;19939;-70
2021/09/12 04:43:26;;;;;;;;;;;19.10;99.70;;;;;;2619421;54;19943;-71
2021/09/12 04:45:52;;;;;;;;;;;19.10;99.60;;;;;;2618794;47;19946;-72
2021/09/12 04:48:18;;;;;;;;;;;19.10;99.50;;;;;;2619283;54;19939;-73
2021/09/12 04:50:46;;;;;;;;;;;19.10;99.70;;;;;;2618718;47;19957;-71
2021/09/12 04:53:12;;;;;;;;;;;19.00;99.90;;;;;;2619116;54;19947;-70
2021/09/12 04:55:38;;;;;;;;;;;19.00;99.90;;;;;;2619316;54;20034;-70
2021/09/12 04:58:03;;;;;;;;;;;18.90;99.90;;;;;;2619304;54;19973;-70
2021/09/12 05:00:29;;;;;;;;;;;18.90;99.90;;;;;;2618685;54;19939;-71
2021/09/12 05:02:55;;;;;;;;;;;18.80;99.90;;;;;;2619766;54;19939;-70
2021/09/12 05:05:21;;;;;;;;;;;18.80;99.90;;;;;;2620056;54;20429;-71
2021/09/12 05:07:49;;;;;;;;;;;18.80;99.90;;;;;;2621115;39;19986;-71
2021/09/12 05:10:15;;;;;;;;;;;18.80;99.90;;;;;;2619550;46;19992;-71
2021/09/12 05:12:41;;;;;;;;;;;18.80;99.90;;;;;;2619909;46;20413;-70
2021/09/12 05:15:07;;;;;;;;;;;18.90;99.90;;;;;;2620171;54;19961;-71
2021/09/12 05:17:33;;;;;;;;;;;18.80;99.90;;;;;;2620429;54;19961;-72
2021/09/12 05:19:58;;;;;;;;;;;18.90;99.90;;;;;;2620584;39;20352;-71
2021/09/12 05:22:24;;;;;;;;;;;18.90;99.90;;;;;;2620499;39;20356;-70
2021/09/12 05:24:53;;;;;;;;;;;18.80;99.90;;;;;;2620070;54;19946;-71
2021/09/12 05:27:18;;;;;;;;;;;18.80;99.90;;;;;;2619430;47;19939;-71
2021/09/12 05:29:44;;;;;;;;;;;18.80;99.90;;;;;;2619977;54;19970;-71
2021/09/12 05:32:10;;;;;;;;;;;18.80;99.90;;;;;;2619686;46;19939;-71
2021/09/12 05:34:35;;;;;;;;;;;18.80;99.90;;;;;;2619944;54;19970;-71
2021/09/12 05:37:01;;;;;;;;;;;18.80;99.90;;;;;;2620256;54;20421;-72
2021/09/12 05:39:27;;;;;;;;;;;18.90;99.70;;;;;;2620185;54;19939;-72
2021/09/12 05:41:55;;;;;;;;;;;18.90;99.90;;;;;;2619422;47;19938;-71
2021/09/12 05:44:21;;;;;;;;;;;18.90;99.90;;;;;;2619987;54;19935;-69
2021/09/12 05:46:51;;;;;;;;;;;18.90;99.70;;;;;;2619574;46;19974;-71
2021/09/12 05:49:17;;;;;;;;;;;19.00;99.80;;;;;;2620191;54;19939;-71
2021/09/12 05:51:43;;;;;;;;;;;19.00;99.60;;;;;;2620075;54;19939;-71
2021/09/12 05:54:08;;;;;;;;;;;19.00;99.60;;;;;;2620230;31;20396;-70
2021/09/12 05:56:34;;;;;;;;;;;19.10;99.50;;;;;;2620054;54;19939;-70
2021/09/12 05:59:02;;;;;;;;;;;19.20;99.10;;;;;;2619467;47;19970;-70
2021/09/12 06:01:28;;;;;;;;;;;19.20;99.10;;;;;;2619240;47;19943;-70
2021/09/12 06:03:54;;;;;;;;;;;19.20;99.10;;;;;;2619753;54;19938;-71
2021/09/12 06:06:20;;;;;;;;;;;19.30;99.30;;;;;;2619834;54;19946;-71
2021/09/12 06:08:46;;;;;;;;;;;19.30;99.20;;;;;;2619240;47;19951;-70
2021/09/12 06:11:12;;;;;;;;;;;19.30;99.30;;;;;;2619220;47;19939;-70
2021/09/12 06:13:38;;;;;;;;;;;19.30;99.40;;;;;;2619720;54;19939;-70
2021/09/12 06:16:07;;;;;;;;;;;19.30;99.50;;;;;;2619651;54;19946;-71
2021/09/12 06:18:33;;;;;;;;;;;19.30;99.70;;;;;;2619174;46;19946;-70
2021/09/12 06:20:59;;;;;;;;;;;19.30;99.20;;;;;;2619383;47;19946;-70
2021/09/12 06:23:25;;;;;;;;;;;19.30;98.90;;;;;;2619349;46;20022;-70
2021/09/12 06:25:50;;;;;;;;;;;19.50;98.70;;;;;;2619752;54;19945;-70
2021/09/12 06:28:16;;;;;;;;;;;19.50;98.30;;;;;;2619433;46;19966;-71
2021/09/12 06:30:42;;;;;;;;;;;19.60;98.50;;;;;;2619688;54;19957;-71
2021/09/12 06:33:10;;;;;;;;;;;19.70;98.50;;;;;;2619856;54;19939;-70
2021/09/12 06:35:36;;;;;;;;;;;19.70;98.60;;;;;;2619035;47;19947;-71
2021/09/12 06:38:01;;;;;;;;;;;19.70;98.80;;;;;;2619575;54;19943;-71
2021/09/12 06:40:31;;;;;;;;;;;19.70;98.80;;;;;;2619693;54;19965;-71
2021/09/12 06:42:56;;;;;;;;;;;19.80;98.80;;;;;;2619514;54;19939;-72
2021/09/12 06:45:22;;;;;;;;;;;19.80;98.70;;;;;;2620732;39;20340;-71
2021/09/12 06:47:48;;;;;;;;;;;19.90;98.40;;;;;;2619565;54;19989;-70
2021/09/12 06:50:16;;;;;;;;;;;20.00;98.20;;;;;;2618943;47;19938;-71
2021/09/12 06:52:42;;;;;;;;;;;20.00;98.40;;;;;;2619513;54;20048;-69
2021/09/12 06:55:09;;;;;;;;;;;20.00;98.30;;;;;;2619588;54;19938;-71
2021/09/12 06:57:35;;;;;;;;;;;20.20;98.40;;;;;;2619719;54;19939;-71
2021/09/12 07:00:01;;;;;;;;;;;20.20;97.90;;;;;;2619051;47;19969;-71
2021/09/12 07:02:26;;;;;;;;;;;20.30;98.00;;;;;;2619723;54;19946;-71
2021/09/12 07:04:52;;;;;;;;;;;20.40;97.80;;;;;;2618911;54;19946;-70
2021/09/12 07:07:20;;;;;;;;;;;20.50;97.60;;;;;;2618941;54;19946;-70
2021/09/12 07:09:46;;;;;;;;;;;20.60;97.50;;;;;;2619466;54;20417;-72
2021/09/12 07:12:12;;;;;;;;;;;20.70;97.50;;;;;;2618913;46;19970;-71
2021/09/12 07:14:38;;;;;;;;;;;20.80;97.50;;;;;;2619677;54;20459;-71
2021/09/12 07:17:03;;;;;;;;;;;20.90;97.00;;;;;;2618938;46;19935;-72
2021/09/12 07:19:29;;;;;;;;;;;21.00;97.70;;;;;;2618824;47;19939;-71
2021/09/12 07:21:55;;;;;;;;;;;21.20;97.30;;;;;;2618773;47;19970;-71
2021/09/12 07:24:23;;;;;;;;;;;21.40;97.10;;;;;;2618544;47;19973;-70
2021/09/12 07:26:49;;;;;;;;;;;21.50;96.20;;;;;;2619412;54;19946;-70
2021/09/12 07:29:15;;;;;;;;;;;21.60;96.20;;;;;;2619420;54;20418;-73
2021/09/12 07:31:41;;;;;;;;;;;21.80;96.00;;;;;;2619280;54;20409;-70
2021/09/12 07:34:06;;;;;;;;;;;21.90;95.40;;;;;;2620164;31;20404;-71
2021/09/12 07:36:32;;;;;;;;;;;22.00;95.90;;;;;;2619468;54;19942;-71
2021/09/12 07:38:58;;;;;;;;;;;22.10;95.50;;;;;;2619333;54;19939;-72
2021/09/12 07:41:27;;;;;;;;;;;22.20;95.30;;;;;;2619366;54;19939;-71
2021/09/12 07:43:52;;;;;;;;;;;22.30;95.80;;;;;;2619221;54;19956;-71
2021/09/12 07:46:18;;;;;;;;;;;22.40;95.70;;;;;;2619694;39;20050;-70
2021/09/12 07:48:44;;;;;;;;;;;22.50;94.60;;;;;;2619283;54;19945;-69
2021/09/12 07:51:10;;;;;;;;;;;22.70;95.00;;;;;;2619525;39;20332;-71
2021/09/12 07:53:35;;;;;;;;;;;22.80;95.00;;;;;;2619255;54;19946;-71
2021/09/12 07:56:01;;;;;;;;;;;22.90;93.70;;;;;;2619190;54;19973;-70
2021/09/12 07:58:29;;;;;;;;;;;23.00;93.70;;;;;;2619259;54;19946;-70
2021/09/12 08:00:55;;;;;;;;;;;23.20;93.60;;;;;;2619159;54;19942;-71
2021/09/12 08:03:21;;;;;;;;;;;23.30;93.10;;;;;;2619396;54;19939;-72
2021/09/12 08:05:47;;;;;;;;;;;23.40;93.20;;;;;;2619207;54;19938;-71
2021/09/12 08:08:13;;;;;;;;;;;23.50;93.20;;;;;;2619124;54;19939;-70
2021/09/12 08:10:39;;;;;;;;;;;23.70;93.00;;;;;;2618845;54;19939;-70
2021/09/12 08:13:04;;;;;;;;;;;23.80;94.00;;;;;;2618729;54;19938;-70
2021/09/12 08:15:33;;;;;;;;;;;24.00;93.50;;;;;;2618913;54;19939;-71
2021/09/12 08:17:59;;;;;;;;;;;24.10;92.50;;;;;;2619358;39;20349;-72
2021/09/12 08:20:25;;;;;;;;;;;;;;;;;;2618809;54;19939;-71
2021/09/12 08:22:50;;;;;;;;;;;24.30;92.80;;;;;;2618916;54;19961;-70
2021/09/12 08:25:16;;;;;;;;;;;24.40;93.00;;;;;;2619297;31;20371;-71
2021/09/12 08:27:42;;;;;;;;;;;24.50;92.40;;;;;;2618797;54;19957;-71
2021/09/12 08:30:08;;;;;;;;;;;24.70;92.50;;;;;;2618863;54;20418;-73
2021/09/12 08:32:36;;;;;;;;;;;24.90;92.00;;;;;;2618813;54;19935;-72
2021/09/12 08:35:02;;;;;;;;;;;25.00;92.10;;;;;;2618507;47;19939;-70
2021/09/12 08:37:28;;;;;;;;;;;25.20;91.40;;;;;;2619827;39;20344;-71
2021/09/12 08:39:54;;;;;;;;;;;25.20;91.10;;;;;;2619665;54;19943;-70
2021/09/12 08:42:20;;;;;;;;;;;25.30;91.60;;;;;;2619608;54;20448;-71
2021/09/12 08:44:46;;;;;;;;;;;25.40;91.30;;;;;;2619679;54;20409;-70
2021/09/12 08:47:12;;;;;;;;;;;25.40;92.00;;;;;;2619111;47;19973;-70
2021/09/12 08:49:41;;;;;;;;;;;25.60;91.10;;;;;;2619662;54;19951;-70
2021/09/12 08:52:07;;;;;;;;;;;25.50;91.10;;;;;;2619527;54;19935;-70
2021/09/12 08:54:33;;;;;;;;;;;25.50;90.80;;;;;;2619546;54;19939;-71
2021/09/12 08:56:59;;;;;;;;;;;25.50;91.70;;;;;;2619509;54;19934;-68
2021/09/12 08:59:25;;;;;;;;;;;25.40;91.60;;;;;;2618721;46;19935;-68
2021/09/12 09:01:52;;;;;;;;;;;25.30;92.00;;;;;;2618784;47;20502;-68
2021/09/12 09:04:18;;;;;;;;;;;25.30;92.40;;;;;;2618847;47;20395;-68
2021/09/12 09:06:47;;;;;;;;;;;25.50;92.30;;;;;;2619507;54;20077;-68
2021/09/12 09:09:13;;;;;;;;;;;25.30;91.80;;;;;;2619183;46;19935;-67
2021/09/12 09:11:40;;;;;;;;;;;25.50;91.80;;;;;;2619576;54;19942;-68
2021/09/12 09:14:13;;;;;;;;;;;25.60;91.30;;;;;;2618975;47;19935;-68
2021/09/12 09:16:39;;;;;;;;;;;25.70;92.00;;;;;;2619971;39;20337;-68
2021/09/12 09:19:06;;;;;;;;;;;25.70;91.00;;;;;;2619483;54;19935;-67
2021/09/12 09:21:32;;;;;;;;;;;25.80;91.60;;;;;;2619409;54;19934;-67
2021/09/12 09:24:15;;;;;;;;;;;25.80;91.20;;;;;;2619389;54;19941;-68
2021/09/12 09:26:42;;;;;;;;;;;25.80;90.60;;;;;;2619431;54;19961;-68
2021/09/12 09:29:08;;;;;;;;;;;26.00;91.10;;;;;;2619405;54;19939;-68
2021/09/12 09:31:34;;;;;;;;;;;25.90;90.80;;;;;;2619461;54;20018;-68
2021/09/12 09:34:12;;;;;;;;;;;25.90;91.80;;;;;;2619653;54;20035;-68
2021/09/12 09:36:38;;;;;;;;;;;25.90;92.00;;;;;;2619445;54;19946;-68
2021/09/12 09:39:03;;;;;;;;;;;26.10;93.00;;;;;;2619543;54;19945;-69
2021/09/12 09:41:37;;;;;;;;;;;25.90;91.60;;;;;;2619450;54;19965;-68
2021/09/12 09:44:06;;;;;;;;;;;26.00;91.40;;;;;;2619406;39;20311;-70
2021/09/12 09:46:34;;;;;;;;;;;26.20;90.70;;;;;;2619354;54;19939;-70
2021/09/12 09:49:00;;;;;;;;;;;26.10;90.90;;;;;;2619185;54;19981;-70
2021/09/12 09:51:27;;;;;;;;;;;26.10;90.70;;;;;;2619410;54;19946;-70
2021/09/12 09:53:52;;;;;;;;;;;26.20;91.00;;;;;;2619417;54;19939;-70
2021/09/12 09:56:18;;;;;;;;;;;26.30;90.50;;;;;;2618739;47;20034;-70
2021/09/12 09:58:47;;;;;;;;;;;26.30;91.20;;;;;;2618797;47;19947;-68
2021/09/12 10:01:14;;;;;;;;;;;26.40;90.80;;;;;;2618747;47;19934;-68
2021/09/12 10:03:40;;;;;;;;;;;26.50;90.80;;;;;;2619001;46;20426;-69
2021/09/12 10:06:06;;;;;;;;;;;26.60;90.30;;;;;;2618717;47;19946;-68
2021/09/12 10:08:33;;;;;;;;;;;26.70;90.50;;;;;;2619273;54;19943;-69
2021/09/12 10:10:59;;;;;;;;;;;26.50;91.00;;;;;;2618705;54;19934;-68
2021/09/12 10:13:25;;;;;;;;;;;26.60;90.90;;;;;;2619298;54;20042;-71
2021/09/12 10:15:55;;;;;;;;;;;26.60;90.00;;;;;;2619350;54;19957;-68
2021/09/12 10:18:23;;;;;;;;;;;26.60;89.90;;;;;;2620073;31;20383;-69
2021/09/12 10:20:50;;;;;;;;;;;26.70;89.10;;;;;;2619308;54;19934;-68
2021/09/12 10:23:16;;;;;;;;;;;26.70;89.90;;;;;;2619483;54;20424;-69
2021/09/12 10:25:54;;;;;;;;;;;26.90;88.20;;;;;;2619237;54;19961;-69
2021/09/12 10:28:27;;;;;;;;;;;27.20;87.80;;;;;;2619265;54;20406;-71
2021/09/12 10:30:55;;;;;;;;;;;27.40;87.60;;;;;;2618744;47;20402;-70
2021/09/12 10:33:22;;;;;;;;;;;27.30;88.80;;;;;;2619229;54;19939;-71
2021/09/12 10:38:23;;;;;;;;;;;27.40;83.70;;;;;;2618869;54;19955;-72
2021/09/12 10:41:03;;;;;;;;;;;27.40;84.70;;;;;;2619678;31;20405;-73
2021/09/12 10:43:39;;;;;;;;;;;27.40;87.20;;;;;;2619214;54;20022;-73
2021/09/12 10:46:20;;;;;;;;;;;27.40;85.20;;;;;;2619171;54;20405;-73
2021/09/12 10:49:03;;;;;;;;;;;27.40;85.20;;;;;;2619172;54;19935;-73
2021/09/12 10:51:34;;;;;;;;;;;27.30;87.30;;;;;;2619408;54;19939;-75
2021/09/12 10:54:00;;;;;;;;;;;27.40;85.80;;;;;;2618556;46;19934;-72
2021/09/12 10:56:30;;;;;;;;;;;27.60;86.40;;;;;;2619294;54;20019;-72
2021/09/12 10:58:58;;;;;;;;;;;27.90;86.50;;;;;;2618631;47;19961;-73
2021/09/12 11:01:25;;;;;;;;;;;28.10;86.00;;;;;;2618944;54;19934;-73
2021/09/12 11:03:51;;;;;;;;;;;28.10;99.90;;;;;;2619317;54;20491;-74
2021/09/12 11:06:17;;;;;;;;;;;28.30;84.20;;;;;;2618870;54;19939;-71
2021/09/12 11:08:45;;;;;;;;;;;28.30;83.40;;;;;;2618380;47;19954;-71
2021/09/12 11:11:11;;;;;;;;;;;28.40;84.70;;;;;;2618989;54;19938;-71
2021/09/12 11:13:38;;;;;;;;;;;28.50;82.70;;;;;;2619120;54;19969;-72
2021/09/12 11:18:45;;;;;;;;;;;27.90;83.30;;;;;;2619894;39;20335;-71
2021/09/12 11:21:11;;;;;;;;;;;28.00;83.60;;;;;;2618255;47;20022;-72
2021/09/12 11:23:37;;;;;;;;;;;27.90;81.90;;;;;;2619072;54;20409;-71
2021/09/12 11:26:06;;;;;;;;;;;28.00;83.10;;;;;;2618395;47;19934;-69
2021/09/12 11:28:35;;;;;;;;;;;28.20;84.10;;;;;;2618936;54;19985;-69
2021/09/12 11:31:02;;;;;;;;;;;28.30;83.20;;;;;;2619024;54;19941;-70
2021/09/12 11:33:42;;;;;;;;;;;28.30;83.10;;;;;;2619021;39;20344;-70
2021/09/12 11:36:08;;;;;;;;;;;28.50;81.50;;;;;;2618797;54;20417;-70
2021/09/12 11:38:34;;;;;;;;;;;28.30;80.00;;;;;;2618191;47;19973;-71
2021/09/12 11:41:00;;;;;;;;;;;28.10;80.40;;;;;;2618810;54;19969;-70
2021/09/12 11:43:28;;;;;;;;;;;28.00;80.00;;;;;;2618367;47;19941;-71
2021/09/12 11:46:04;;;;;;;;;;;28.30;81.80;;;;;;2618933;54;19953;-71
2021/09/12 11:48:29;;;;;;;;;;;28.40;81.40;;;;;;2618963;54;20464;-70
2021/09/12 11:50:55;;;;;;;;;;;28.80;81.40;;;;;;2617821;47;19943;-70
2021/09/12 11:53:24;;;;;;;;;;;29.00;79.30;;;;;;2618934;54;19939;-70
2021/09/12 11:55:50;;;;;;;;;;;28.80;89.70;;;;;;2618482;54;19942;-70
2021/09/12 11:58:16;;;;;;;;;;;29.10;77.40;;;;;;2618937;54;19947;-72
2021/09/12 12:00:46;;;;;;;;;;;29.50;81.00;;;;;;2619064;54;19935;-70
2021/09/12 12:03:13;;;;;;;;;;;29.50;79.50;;;;;;2618925;54;19934;-72
2021/09/12 12:05:40;;;;;;;;;;;29.20;78.00;;;;;;2618886;54;19941;-70
2021/09/12 12:08:07;;;;;;;;;;;29.10;77.90;;;;;;2618666;39;20498;-70
2021/09/12 12:10:34;;;;;;;;;;;29.00;80.10;;;;;;2618675;54;19935;-71
2021/09/12 12:12:59;;;;;;;;;;;29.20;78.40;;;;;;2618954;54;19943;-73
2021/09/12 12:15:32;;;;;;;;;;;29.20;79.30;;;;;;2618770;54;19941;-69
2021/09/12 12:18:00;;;;;;;;;;;29.10;78.40;;;;;;2618831;54;19969;-69
2021/09/12 12:20:31;;;;;;;;;;;29.40;76.90;;;;;;2618943;54;19962;-70
2021/09/12 12:23:11;;;;;;;;;;;29.60;76.30;;;;;;2618873;54;19956;-71
2021/09/12 12:25:37;;;;;;;;;;;29.80;76.50;;;;;;2618235;47;19939;-70
2021/09/12 12:28:13;;;;;;;;;;;29.90;76.60;;;;;;2618780;54;19961;-69
2021/09/12 12:30:38;;;;;;;;;;;30.00;76.70;;;;;;2618955;54;19941;-70
2021/09/12 12:33:07;;;;;;;;;;;29.70;76.60;;;;;;2618549;54;19949;-72
2021/09/12 12:35:33;;;;;;;;;;;29.80;76.60;;;;;;2617475;54;19977;-72
2021/09/12 12:37:58;;;;;;;;;;;30.00;76.90;;;;;;2618559;39;20402;-69
2021/09/12 12:40:24;;;;;;;;;;;30.10;74.80;;;;;;2618167;54;19935;-70
2021/09/12 12:42:51;;;;;;;;;;;30.20;74.20;;;;;;2618606;39;20419;-69
2021/09/12 12:45:18;;;;;;;;;;;30.20;74.80;;;;;;2618008;54;20449;-70
2021/09/12 12:47:44;;;;;;;;;;;30.40;73.20;;;;;;2618221;54;20409;-71
2021/09/12 12:50:25;;;;;;;;;;;30.20;72.60;;;;;;2618044;54;19943;-71
2021/09/12 12:53:05;;;;;;;;;;;30.00;73.30;;;;;;2617882;54;19950;-70
2021/09/12 12:55:30;;;;;;;;;;;29.70;73.10;;;;;;2617586;47;20013;-73
2021/09/12 12:57:58;;;;;;;;;;;30.00;74.70;;;;;;2617336;47;20402;-71
2021/09/12 13:00:23;;;;;;;;;;;29.90;75.60;;;;;;2617953;54;19956;-70
2021/09/12 13:02:49;;;;;;;;;;;29.30;74.30;;;;;;2617828;54;19934;-72
2021/09/12 13:05:17;;;;;;;;;;;29.60;77.20;;;;;;2617341;54;19950;-75
2021/09/12 13:07:43;;;;;;;;;;;29.70;74.20;;;;;;2618573;39;20371;-71
2021/09/12 13:10:09;;;;;;;;;;;29.50;76.80;;;;;;2618070;54;19960;-73
2021/09/12 13:12:35;;;;;;;;;;;30.00;79.60;;;;;;2618071;54;19935;-71
2021/09/12 13:15:00;;;;;;;;;;;30.20;74.30;;;;;;2617993;54;20042;-70
2021/09/12 13:17:27;;;;;;;;;;;30.20;74.60;;;;;;2618147;54;19934;-70
2021/09/12 13:19:53;;;;;;;;;;;29.90;75.00;;;;;;2618395;54;20047;-72
2021/09/12 13:22:21;;;;;;;;;;;30.10;74.20;;;;;;2617866;54;19935;-69
2021/09/12 13:24:47;;;;;;;;;;;30.30;75.00;;;;;;2619506;39;20332;-70
2021/09/12 13:27:13;;;;;;;;;;;30.00;73.90;;;;;;2618910;54;19956;-70
2021/09/12 13:29:38;;;;;;;;;;;30.00;75.40;;;;;;2618829;46;19938;-69
2021/09/12 13:32:04;;;;;;;;;;;30.20;74.20;;;;;;2618876;54;19946;-73
2021/09/12 13:34:30;;;;;;;;;;;30.50;74.00;;;;;;2618858;54;19934;-72
2021/09/12 13:36:56;;;;;;;;;;;30.20;72.60;;;;;;2618801;54;19935;-72
2021/09/12 13:39:24;;;;;;;;;;;30.10;73.60;;;;;;2618708;54;19934;-71
2021/09/12 13:41:50;;;;;;;;;;;30.00;73.10;;;;;;2618747;54;19935;-71
2021/09/12 13:44:16;;;;;;;;;;;30.20;75.60;;;;;;2618326;54;19942;-72
2021/09/12 13:46:41;;;;;;;;;;;30.30;73.20;;;;;;2618858;54;19968;-70
2021/09/12 13:49:07;;;;;;;;;;;30.20;73.30;;;;;;2618555;54;19942;-70
2021/09/12 13:51:33;;;;;;;;;;;30.50;73.60;;;;;;2618663;54;19958;-69
2021/09/12 13:53:59;;;;;;;;;;;30.10;72.90;;;;;;2618386;47;20414;-71
2021/09/12 13:56:27;;;;;;;;;;;29.80;72.70;;;;;;2618751;54;19943;-72
2021/09/12 13:58:53;;;;;;;;;;;30.00;72.50;;;;;;2619067;54;19942;-71
2021/09/12 14:01:18;;;;;;;;;;;30.00;73.60;;;;;;2618723;46;19938;-73
2021/09/12 14:03:44;;;;;;;;;;;29.80;72.40;;;;;;2619289;54;19938;-71
2021/09/12 14:06:10;;;;;;;;;;;29.90;74.50;;;;;;2619045;54;20026;-71
2021/09/12 14:08:36;;;;;;;;;;;30.50;74.50;;;;;;2618925;54;20172;-68
2021/09/12 14:11:02;;;;;;;;;;;;;;;;;;2619494;39;20361;-69
2021/09/12 14:13:30;;;;;;;;;;;30.90;70.80;;;;;;2619622;39;20360;-71
2021/09/12 14:15:57;;;;;;;;;;;31.00;71.70;;;;;;2618826;39;20322;-71
2021/09/12 14:18:23;;;;;;;;;;;31.40;71.80;;;;;;2619392;54;19946;-71
2021/09/12 14:20:49;;;;;;;;;;;31.60;72.20;;;;;;2619103;54;19943;-69
2021/09/12 14:23:15;;;;;;;;;;;31.30;70.60;;;;;;2619105;54;20493;-70